Time;durP1;ratioP1;P1;durP2;ratioP2;P2;SDS_P1;SDS_P2;PMS_P1;PMS_P2;Temp;Humidity;BMP_temperature;BMP_pressure;BME280_temperature;BME280_humidity;BME280_pressure;Samples;Min_cycle;Max_cycle;Signal;HPM_P1;HPM_P2
2021/12/07 00:02:10;;;;;;;;;;;;;;;9.76;55.33;100373.59;4982093;27;97736;-68
2021/12/07 00:04:37;;;;;;;;;;;;;;;9.75;55.88;100374.69;5000097;27;123397;-69
2021/12/07 00:07:03;;;;;;;;;;;;;;;9.76;55.93;100376.28;4981210;27;108391;-59
2021/12/07 00:09:29;;;;;;;;;;;;;;;9.75;55.95;100369.28;5000848;27;110091;-60
2021/12/07 00:11:56;;;;;;;;;;;;;;;9.77;55.33;100364.44;5000801;27;97654;-68
2021/12/07 00:14:24;;;;;;;;;;;;;;;9.77;55.75;100359.06;5000111;27;98535;-59
2021/12/07 00:16:52;;;;;;;;;;;;;;;9.76;55.25;100358.25;4999805;27;99220;-59
2021/12/07 00:19:17;;;;;;;;;;;;;;;9.77;56.04;100361.75;5000114;27;98463;-59
2021/12/07 00:21:43;;;;;;;;;;;;;;;9.75;55.68;100358.53;4999505;27;122034;-59
2021/12/07 00:24:10;;;;;;;;;;;;;;;9.76;55.72;100360.13;4998776;27;127014;-60
2021/12/07 00:26:39;;;;;;;;;;;;;;;9.77;55.51;100356.38;4999628;27;128864;-68
2021/12/07 00:29:05;;;;;;;;;;;;;;;9.77;55.41;100361.75;5000248;27;114181;-68
2021/12/07 00:31:39;;;;;;;;;;;;;;;9.76;55.89;100350.19;5001219;27;97774;-67
2021/12/07 00:34:14;;;;;;;;;;;;;;;9.75;55.46;100351.25;5001254;27;98230;-69
2021/12/07 00:36:44;;;;;;;;;;;;;;;9.77;55.62;100356.38;4999472;27;98971;-68
2021/12/07 00:39:10;;;;;;;;;;;;;;;9.76;55.72;100344.00;5000560;27;98758;-68
2021/12/07 00:41:36;;;;;;;;;;;;;;;9.76;56.34;100346.69;5000429;27;97906;-59
2021/12/07 00:44:03;;;;;;;;;;;;;;;9.75;55.69;100355.84;5001774;27;128141;-68
2021/12/07 00:46:29;;;;;;;;;;;;;;;9.75;55.47;100345.88;4984502;27;98559;-59
2021/12/07 00:48:55;;;;;;;;;;;;;;;9.75;56.08;100340.50;5003078;27;98272;-59
2021/12/07 00:51:21;;;;;;;;;;;;;;;9.75;55.62;100337.00;5002359;27;122443;-69
2021/12/07 00:53:46;;;;;;;;;;;;;;;9.75;55.93;100326.22;5002645;27;127840;-69
2021/12/07 00:56:12;;;;;;;;;;;;;;;9.74;55.86;100327.28;5003402;27;128320;-59
2021/12/07 00:58:38;;;;;;;;;;;;;;;9.75;55.91;100326.22;5002216;27;119944;-59
2021/12/07 01:01:08;;;;;;;;;;;;;;;9.75;55.61;100328.91;5003097;27;121149;-59
2021/12/07 01:03:34;;;;;;;;;;;;;;;9.74;55.63;100325.38;5002228;27;115782;-60
2021/12/07 01:06:19;;;;;;;;;;;;;;;9.73;55.95;100314.91;4984788;27;98137;-68
2021/12/07 01:24:58;;;;;;;;;;;;;;;9.72;55.52;100297.94;4983075;28;98144;-68
2021/12/07 01:27:24;;;;;;;;;;;;;;;9.71;55.37;100290.94;4991482;27;125993;-59
2021/12/07 01:30:00;;;;;;;;;;;;;;;9.71;55.50;100285.56;4984362;27;98313;-69
2021/12/07 01:32:42;;;;;;;;;;;;;;;9.71;55.26;100280.19;5004151;27;97884;-69
2021/12/07 01:41:02;;;;;;;;;;;;;;;9.72;55.72;100272.91;4916732;27;99241;-59
2021/12/07 01:43:53;;;;;;;;;;;;;;;9.71;55.33;100271.31;4986205;27;97984;-59
2021/12/07 01:52:22;;;;;;;;;;;;;;;9.71;55.90;100274.00;4999579;27;97812;-59
2021/12/07 02:00:18;;;;;;;;;;;;;;;9.70;55.92;100262.41;4999966;27;98162;-59
2021/12/07 02:02:44;;;;;;;;;;;;;;;9.69;55.13;100263.47;4983136;27;103979;-59
2021/12/07 02:05:10;;;;;;;;;;;;;;;9.70;55.84;100256.22;5002229;27;123073;-69
2021/12/07 02:07:36;;;;;;;;;;;;;;;9.70;55.96;100257.00;5003230;27;97888;-59
2021/12/07 02:10:08;;;;;;;;;;;;;;;9.70;56.01;100250.81;5002648;27;98412;-59
2021/12/07 02:12:42;;;;;;;;;;;;;;;9.69;55.84;100241.16;5003332;27;98209;-68
2021/12/07 02:15:13;;;;;;;;;;;;;;;9.69;56.30;100241.94;5002738;27;97631;-68
2021/12/07 02:17:39;;;;;;;;;;;;;;;9.68;55.57;100224.19;5001231;27;126991;-59
2021/12/07 02:20:06;;;;;;;;;;;;;;;9.68;55.50;100213.41;5002541;27;98226;-68
2021/12/07 02:22:32;;;;;;;;;;;;;;;9.68;56.01;100210.72;5002228;27;98609;-59
2021/12/07 02:24:58;;;;;;;;;;;;;;;9.68;56.03;100204.53;5002351;27;98231;-68
2021/12/07 02:27:24;;;;;;;;;;;;;;;9.67;55.83;100202.91;5001653;27;127682;-59
2021/12/07 02:29:50;;;;;;;;;;;;;;;9.66;55.74;100201.28;4982405;27;127129;-60
2021/12/07 02:32:16;;;;;;;;;;;;;;;9.65;55.93;100200.50;5000536;27;129237;-67
2021/12/07 02:34:53;;;;;;;;;;;;;;;9.65;55.77;100205.06;4982285;27;122282;-59
2021/12/07 02:37:24;;;;;;;;;;;;;;;9.64;55.62;100204.28;4983880;27;99151;-68
2021/12/07 02:39:50;;;;;;;;;;;;;;;9.61;56.07;100196.72;4963283;28;116593;-68
2021/12/07 02:42:19;;;;;;;;;;;;;;;9.63;55.25;100207.22;4946307;28;127562;-68
2021/12/07 02:44:45;;;;;;;;;;;;;;;9.62;56.03;100219.06;4978450;27;98035;-60
2021/12/07 02:47:11;;;;;;;;;;;;;;;9.61;56.04;100222.81;5000733;27;99308;-68
2021/12/07 02:49:37;;;;;;;;;;;;;;;9.59;55.96;100225.78;5000533;27;127488;-59
2021/12/07 02:52:03;;;;;;;;;;;;;;;9.59;55.91;100226.59;5000622;27;128179;-59
2021/12/07 02:54:31;;;;;;;;;;;;;;;9.57;55.92;100231.44;4999955;27;119393;-69
2021/12/07 02:56:57;;;;;;;;;;;;;;;9.58;55.41;100243.00;5001399;27;98723;-69
2021/12/07 02:59:24;;;;;;;;;;;;;;;9.56;56.18;100240.59;5001113;27;128206;-59
2021/12/07 03:02:24;;;;;;;;;;;;;;;9.56;55.62;100229.81;5001166;27;98248;-59
2021/12/07 03:04:53;;;;;;;;;;;;;;;9.55;56.25;100225.53;4999253;27;98480;-69
2021/12/07 03:07:41;;;;;;;;;;;;;;;9.55;55.57;100232.78;4984955;27;98815;-69
2021/12/07 03:26:25;;;;;;;;;;;;;;;9.51;56.05;100210.97;4982629;27;97806;-59
2021/12/07 03:28:53;;;;;;;;;;;;;;;9.51;55.64;100210.97;5001451;27;97788;-59
2021/12/07 03:31:19;;;;;;;;;;;;;;;9.51;55.94;100215.53;5001356;27;97867;-68
2021/12/07 03:33:45;;;;;;;;;;;;;;;9.49;55.86;100215.81;5000188;27;122806;-59
2021/12/07 03:36:11;;;;;;;;;;;;;;;9.49;56.15;100212.31;5000238;27;122667;-59
2021/12/07 03:38:37;;;;;;;;;;;;;;;9.48;56.16;100203.44;5000103;27;111602;-60
2021/12/07 03:41:03;;;;;;;;;;;;;;;9.47;55.78;100201.81;5001120;27;124619;-59
2021/12/07 03:43:29;;;;;;;;;;;;;;;9.47;55.65;100206.38;5000060;27;124194;-59
2021/12/07 03:45:55;;;;;;;;;;;;;;;9.45;56.12;100211.22;5000331;27;121284;-59
2021/12/07 03:48:21;;;;;;;;;;;;;;;9.44;55.88;100215.81;4999844;27;123710;-68
2021/12/07 03:50:47;;;;;;;;;;;;;;;9.42;55.74;100212.56;5000746;27;99045;-59
2021/12/07 03:53:13;;;;;;;;;;;;;;;9.42;55.54;100209.06;4980675;27;128333;-68
2021/12/07 03:55:39;;;;;;;;;;;;;;;9.41;55.95;100221.72;4982612;27;99736;-59
2021/12/07 03:58:05;;;;;;;;;;;;;;;9.41;55.70;100234.34;4999538;27;110018;-59
2021/12/07 04:00:33;;;;;;;;;;;;;;;9.39;56.14;100226.53;4980881;27;127376;-59
2021/12/07 04:03:03;;;;;;;;;;;;;;;9.40;56.04;100227.38;5000331;27;98060;-68
2021/12/07 04:05:29;;;;;;;;;;;;;;;9.41;55.71;100231.66;4993644;27;98027;-69
2021/12/07 04:07:55;;;;;;;;;;;;;;;9.38;55.68;100214.16;5000034;27;99435;-60
2021/12/07 04:10:22;;;;;;;;;;;;;;;9.40;55.81;100216.59;4999828;27;99006;-59
2021/12/07 04:12:48;;;;;;;;;;;;;;;9.39;55.77;100210.38;5000209;27;98205;-59
2021/12/07 04:15:15;;;;;;;;;;;;;;;9.40;55.53;100206.66;4999534;27;122349;-68
2021/12/07 04:17:41;;;;;;;;;;;;;;;9.39;55.95;100206.91;4998636;27;125260;-59
2021/12/07 04:20:08;;;;;;;;;;;;;;;9.40;55.68;100208.53;5000954;27;99138;-68
2021/12/07 04:22:34;;;;;;;;;;;;;;;9.40;56.14;100211.22;5000168;27;107041;-59
2021/12/07 04:25:00;;;;;;;;;;;;;;;9.39;55.78;100204.22;4999736;27;121484;-59
2021/12/07 04:27:26;;;;;;;;;;;;;;;9.38;56.11;100207.97;4999208;27;124913;-62
2021/12/07 04:29:52;;;;;;;;;;;;;;;9.37;55.81;100204.47;4999311;27;126844;-59
2021/12/07 04:32:18;;;;;;;;;;;;;;;9.36;55.84;100199.38;4998337;27;98964;-59
2021/12/07 04:34:43;;;;;;;;;;;;;;;9.34;55.43;100199.63;4998500;27;122460;-68
2021/12/07 04:37:09;;;;;;;;;;;;;;;9.33;55.98;100201.50;4998734;27;128406;-68
2021/12/07 04:39:35;;;;;;;;;;;;;;;9.32;55.44;100205.28;4999192;27;127799;-59
2021/12/07 04:42:01;;;;;;;;;;;;;;;9.31;55.37;100200.16;4981186;27;97975;-59
2021/12/07 04:44:27;;;;;;;;;;;;;;;9.29;55.68;100195.03;5001200;27;97938;-61
2021/12/07 04:57:59;;;;;;;;;;;;;;;9.27;55.65;100189.09;4991653;27;98640;-59
2021/12/07 05:00:26;;;;;;;;;;;;;;;9.26;55.93;100190.19;4999546;27;128221;-68
2021/12/07 05:03:00;;;;;;;;;;;;;;;9.25;55.71;100190.47;4998889;27;124170;-68
2021/12/07 05:05:30;;;;;;;;;;;;;;;9.25;55.93;100190.47;5000988;27;97736;-69
2021/12/07 05:07:59;;;;;;;;;;;;;;;9.23;55.57;100185.34;4999905;27;98387;-68
2021/12/07 05:10:31;;;;;;;;;;;;;;;9.22;55.59;100191.78;5000565;27;98587;-59
2021/12/07 05:34:45;;;;;;;;;;;;;;;9.15;55.52;100182.34;5002113;27;97882;-68
2021/12/07 05:39:57;;;;;;;;;;;;;;;9.10;55.39;100189.34;4984143;27;98212;-68
2021/12/07 05:42:24;;;;;;;;;;;;;;;9.10;55.19;100189.34;5004755;27;98494;-68
2021/12/07 05:44:51;;;;;;;;;;;;;;;9.12;55.37;100201.69;5003402;27;98309;-68
2021/12/07 05:47:16;;;;;;;;;;;;;;;9.09;55.40;100195.78;5010202;27;97805;-69
2021/12/07 05:49:42;;;;;;;;;;;;;;;9.07;54.99;100200.63;5002738;27;128842;-68
2021/12/07 05:52:09;;;;;;;;;;;;;;;9.06;55.77;100196.31;4984197;27;127733;-68
2021/12/07 05:54:35;;;;;;;;;;;;;;;9.05;55.51;100200.09;5002992;27;126850;-68
2021/12/07 05:57:00;;;;;;;;;;;;;;;9.05;55.70;100199.28;5001260;27;121671;-68
2021/12/07 05:59:26;;;;;;;;;;;;;;;9.03;55.22;100196.84;4983497;27;129026;-68
2021/12/07 06:01:52;;;;;;;;;;;;;;;9.02;55.00;100197.91;5002626;27;128553;-68
2021/12/07 06:04:18;;;;;;;;;;;;;;;9.00;55.62;100196.56;5002500;27;127647;-69
2021/12/07 06:06:44;;;;;;;;;;;;;;;9.01;55.06;100196.31;5002631;27;122479;-68
2021/12/07 06:09:10;;;;;;;;;;;;;;;9.02;55.82;100197.09;5001469;27;123326;-68
2021/12/07 06:11:36;;;;;;;;;;;;;;;9.00;55.38;100204.63;5003065;27;127839;-68
2021/12/07 06:14:02;;;;;;;;;;;;;;;8.99;55.12;100208.38;5003060;27;127311;-68
2021/12/07 06:16:30;;;;;;;;;;;;;;;8.97;55.45;100214.03;5003010;27;117550;-68
2021/12/07 06:18:57;;;;;;;;;;;;;;;8.97;55.49;100216.72;5003789;27;98829;-69
2021/12/07 06:21:23;;;;;;;;;;;;;;;8.97;55.34;100221.28;5003361;27;103784;-68
2021/12/07 06:23:49;;;;;;;;;;;;;;;8.95;55.67;100212.66;5003218;27;98137;-69
2021/12/07 06:26:15;;;;;;;;;;;;;;;8.95;55.25;100221.53;5001933;27;122632;-68
2021/12/07 06:28:41;;;;;;;;;;;;;;;8.95;55.10;100224.22;4982782;27;128281;-68
2021/12/07 06:31:07;;;;;;;;;;;;;;;8.93;55.13;100221.00;5002143;27;119778;-68
2021/12/07 06:33:33;;;;;;;;;;;;;;;8.95;55.45;100215.34;5003551;27;97937;-68
2021/12/07 06:36:00;;;;;;;;;;;;;;;8.94;55.38;100219.94;5003987;27;98008;-68
2021/12/07 06:38:27;;;;;;;;;;;;;;;8.95;55.02;100216.16;4983266;27;98830;-68
2021/12/07 06:40:53;;;;;;;;;;;;;;;8.96;55.31;100220.50;5002075;27;116258;-68
2021/12/07 06:43:21;;;;;;;;;;;;;;;8.94;55.25;100211.88;5001238;27;126828;-68
2021/12/07 06:45:47;;;;;;;;;;;;;;;8.98;54.86;100214.84;5003242;27;98040;-68
2021/12/07 06:48:13;;;;;;;;;;;;;;;8.98;55.26;100228.28;4982718;27;122038;-69
2021/12/07 06:50:38;;;;;;;;;;;;;;;8.99;55.43;100222.63;5002182;27;128429;-69
2021/12/07 06:53:04;;;;;;;;;;;;;;;9.00;55.05;100228.81;5000638;27;123456;-68
2021/12/07 06:55:30;;;;;;;;;;;;;;;9.00;54.91;100224.28;4984507;27;98237;-69
2021/12/07 06:57:56;;;;;;;;;;;;;;;9.02;55.18;100229.38;5001141;27;128785;-68
2021/12/07 07:00:22;;;;;;;;;;;;;;;9.02;54.71;100221.31;5002189;27;127109;-69
2021/12/07 07:02:48;;;;;;;;;;;;;;;9.02;55.14;100232.06;4983610;27;121329;-59
2021/12/07 07:05:15;;;;;;;;;;;;;;;9.03;54.84;100229.09;4998733;27;120526;-69
2021/12/07 07:07:41;;;;;;;;;;;;;;;9.04;54.85;100233.44;4989933;27;121657;-68
2021/12/07 07:10:07;;;;;;;;;;;;;;;9.04;54.76;100230.75;4998173;27;121405;-59
2021/12/07 07:12:33;;;;;;;;;;;;;;;9.06;54.89;100231.28;4998703;27;98244;-59
2021/12/07 07:14:59;;;;;;;;;;;;;;;9.08;54.96;100233.72;4997888;27;109313;-68
2021/12/07 07:17:25;;;;;;;;;;;;;;;9.09;54.81;100238.81;4997745;27;122986;-68
2021/12/07 07:19:51;;;;;;;;;;;;;;;9.12;55.28;100236.66;4996415;27;118984;-58
2021/12/07 07:22:17;;;;;;;;;;;;;;;9.14;55.05;100240.72;4997966;27;98153;-68
2021/12/07 07:24:45;;;;;;;;;;;;;;;9.16;54.69;100241.28;4963486;27;98169;-68
2021/12/07 07:27:11;;;;;;;;;;;;;;;9.19;55.28;100242.59;4974677;27;98952;-58
2021/12/07 07:29:37;;;;;;;;;;;;;;;9.21;55.02;100238.59;4996253;27;125873;-58
2021/12/07 07:32:03;;;;;;;;;;;;;;;9.25;54.75;100236.19;4994049;27;129562;-58
2021/12/07 07:34:29;;;;;;;;;;;;;;;9.27;54.54;100239.41;4995841;27;97753;-59
2021/12/07 07:36:55;;;;;;;;;;;;;;;9.31;55.04;100240.50;4996667;27;98415;-58
2021/12/07 07:39:21;;;;;;;;;;;;;;;9.35;54.65;100249.66;4997511;27;99007;-58
2021/12/07 07:41:46;;;;;;;;;;;;;;;9.43;54.42;100248.34;4995435;27;127863;-58
2021/12/07 07:44:12;;;;;;;;;;;;;;;9.50;54.76;100252.41;4995614;27;122730;-58
2021/12/07 07:46:38;;;;;;;;;;;;;;;9.53;54.43;100254.56;4995820;27;127640;-59
2021/12/07 07:49:04;;;;;;;;;;;;;;;9.60;53.92;100257.00;4996632;27;98323;-58
2021/12/07 07:51:34;;;;;;;;;;;;;;;9.69;54.00;100255.41;4978489;27;97920;-58
2021/12/07 07:54:00;;;;;;;;;;;;;;;9.74;54.32;100258.09;4976867;27;97921;-59
2021/12/07 07:56:29;;;;;;;;;;;;;;;9.83;53.79;100264.59;4993842;27;127857;-59
2021/12/07 07:58:55;;;;;;;;;;;;;;;9.98;53.82;100258.44;4990312;27;105504;-58
2021/12/07 08:01:23;;;;;;;;;;;;;;;10.19;53.93;100258.44;4994356;27;127347;-59
2021/12/07 08:03:50;;;;;;;;;;;;;;;10.47;53.56;100257.09;4974722;28;99473;-59
2021/12/07 08:06:16;;;;;;;;;;;;;;;10.84;53.60;100256.75;4992069;27;98326;-59
2021/12/07 08:08:42;;;;;;;;;;;;;;;11.26;52.66;100258.22;4976035;27;121554;-59
2021/12/07 08:11:08;;;;;;;;;;;;;;;11.73;52.41;100251.50;4994975;27;109794;-59
2021/12/07 08:13:34;;;;;;;;;;;;;;;12.20;51.94;100247.41;4993484;27;97979;-59
2021/12/07 08:16:00;;;;;;;;;;;;;;;12.65;51.50;100254.25;4997192;27;127928;-59
2021/12/07 08:18:25;;;;;;;;;;;;;;;13.05;51.16;100252.22;4995146;27;126312;-59
2021/12/07 08:20:51;;;;;;;;;;;;;;;13.42;51.19;100251.50;4994052;27;121955;-59
2021/12/07 08:23:17;;;;;;;;;;;;;;;13.92;50.62;100249.19;4995194;27;97814;-59
2021/12/07 08:25:46;;;;;;;;;;;;;;;14.58;49.91;100247.31;4995743;27;100181;-59
2021/12/07 08:28:13;;;;;;;;;;;;;;;15.43;48.85;100245.06;4995760;27;98406;-59
2021/12/07 08:30:40;;;;;;;;;;;;;;;16.22;47.66;100239.16;4995708;27;98404;-59
2021/12/07 08:33:06;;;;;;;;;;;;;;;16.77;47.29;100240.78;4993612;27;116360;-59
2021/12/07 08:35:32;;;;;;;;;;;;;;;17.18;46.80;100246.69;4994614;27;126597;-60
2021/12/07 08:37:58;;;;;;;;;;;;;;;17.30;47.01;100254.25;4993639;27;128355;-59
2021/12/07 08:40:25;;;;;;;;;;;;;;;17.64;47.03;100253.50;4994167;27;127567;-59
2021/12/07 08:42:51;;;;;;;;;;;;;;;17.74;46.92;100265.22;4994527;27;119882;-59
2021/12/07 08:45:18;;;;;;;;;;;;;;;17.93;47.00;100265.72;4995854;27;97895;-59
2021/12/07 08:47:45;;;;;;;;;;;;;;;18.04;47.13;100266.22;4995610;27;97989;-59
2021/12/07 08:50:17;;;;;;;;;;;;;;;18.04;47.38;100264.28;4995836;27;98654;-59
2021/12/07 08:52:43;;;;;;;;;;;;;;;18.07;47.62;100266.34;4996058;27;97764;-59
2021/12/07 09:00:27;;;;;;;;;;;;;;;18.13;48.13;100262.34;4992146;27;98141;-59
2021/12/07 09:02:52;;;;;;;;;;;;;;;18.13;48.34;100262.34;4992518;27;114107;-59
2021/12/07 09:05:18;;;;;;;;;;;;;;;18.11;48.27;100264.56;4998160;27;126219;-58
2021/12/07 09:07:45;;;;;;;;;;;;;;;18.07;48.33;100265.53;4998175;27;122761;-59
2021/12/07 09:10:11;;;;;;;;;;;;;;;18.02;48.57;100268.44;4997172;27;98535;-59
2021/12/07 09:12:37;;;;;;;;;;;;;;;17.97;48.70;100271.34;4998329;27;98986;-59
2021/12/07 09:15:03;;;;;;;;;;;;;;;17.86;48.89;100276.31;4998242;27;118550;-59
2021/12/07 09:17:29;;;;;;;;;;;;;;;17.74;49.21;100278.84;4979818;27;98028;-59
2021/12/07 09:19:55;;;;;;;;;;;;;;;17.61;49.45;100270.50;4997554;27;122059;-59
2021/12/07 09:22:21;;;;;;;;;;;;;;;17.50;49.76;100263.75;4998485;27;104582;-59
2021/12/07 09:24:47;;;;;;;;;;;;;;;17.38;49.89;100261.63;4998528;27;99168;-59
2021/12/07 09:27:13;;;;;;;;;;;;;;;17.28;50.04;100269.28;4998080;27;98731;-58
2021/12/07 09:29:39;;;;;;;;;;;;;;;17.15;50.32;100269.09;4997792;27;116971;-58
2021/12/07 09:32:05;;;;;;;;;;;;;;;17.07;50.45;100266.34;4997988;27;113288;-58
2021/12/07 09:34:31;;;;;;;;;;;;;;;16.96;50.53;100262.31;4998460;27;98624;-59
2021/12/07 09:36:57;;;;;;;;;;;;;;;16.82;50.81;100265.94;4978497;27;128142;-58
2021/12/07 09:39:23;;;;;;;;;;;;;;;16.69;50.96;100273.03;4997370;27;128668;-58
2021/12/07 09:41:49;;;;;;;;;;;;;;;16.59;51.15;100267.88;4998381;27;99283;-58
2021/12/07 09:44:15;;;;;;;;;;;;;;;16.44;51.24;100271.00;4998393;27;99052;-61
2021/12/07 09:46:43;;;;;;;;;;;;;;;16.28;51.42;100272.50;4978923;27;104359;-60
2021/12/07 09:49:09;;;;;;;;;;;;;;;16.12;51.54;100272.06;4997735;27;98184;-60
2021/12/07 09:51:35;;;;;;;;;;;;;;;16.00;51.73;100271.81;4998057;27;97987;-60
2021/12/07 09:54:01;;;;;;;;;;;;;;;15.81;52.11;100275.50;4998590;27;97863;-60
2021/12/07 09:56:27;;;;;;;;;;;;;;;15.69;52.22;100280.66;4997525;27;120032;-59
2021/12/07 09:58:54;;;;;;;;;;;;;;;15.61;52.23;100281.34;4998110;27;98368;-59
2021/12/07 10:01:20;;;;;;;;;;;;;;;15.54;52.10;100270.91;4998674;27;98696;-59
2021/12/07 10:03:46;;;;;;;;;;;;;;;15.41;52.15;100277.97;4997590;27;122852;-59
2021/12/07 10:06:13;;;;;;;;;;;;;;;15.30;52.49;100276.56;4998454;27;106533;-59
2021/12/07 10:08:38;;;;;;;;;;;;;;;15.21;52.52;100279.19;4996582;27;115669;-60
2021/12/07 10:11:06;;;;;;;;;;;;;;;15.13;52.62;100277.19;4997484;27;122714;-59
2021/12/07 10:13:32;;;;;;;;;;;;;;;15.07;52.76;100274.88;4978882;27;119972;-59
2021/12/07 10:15:59;;;;;;;;;;;;;;;15.03;52.70;100274.66;4996199;27;127166;-59
2021/12/07 10:18:27;;;;;;;;;;;;;;;14.97;52.69;100267.72;4996674;27;115741;-59
2021/12/07 10:21:00;;;;;;;;;;;;;;;14.93;52.78;100272.13;4998804;27;98456;-59
2021/12/07 10:23:51;;;;;;;;;;;;;;;14.88;52.65;100275.75;4991746;27;98513;-59
2021/12/07 10:26:28;;;;;;;;;;;;;;;14.82;53.01;100268.84;4992085;27;98461;-60
2021/12/07 10:28:56;;;;;;;;;;;;;;;14.78;52.59;100267.03;4988858;27;127691;-59
2021/12/07 10:31:42;;;;;;;;;;;;;;;14.70;52.87;100269.31;4996870;27;120045;-60
2021/12/07 10:34:14;;;;;;;;;;;;;;;14.65;52.70;100268.59;4992295;27;99107;-59
2021/12/07 10:36:51;;;;;;;;;;;;;;;14.62;53.04;100261.03;4996708;27;99010;-60
2021/12/07 10:39:19;;;;;;;;;;;;;;;14.59;53.05;100258.94;4997482;27;98838;-59
2021/12/07 10:41:53;;;;;;;;;;;;;;;14.50;52.90;100256.09;4990830;27;97937;-59
2021/12/07 10:44:23;;;;;;;;;;;;;;;14.43;53.23;100261.09;4996408;27;126973;-59
2021/12/07 10:46:56;;;;;;;;;;;;;;;14.35;53.54;100250.94;4997513;27;98326;-59
2021/12/07 10:49:51;;;;;;;;;;;;;;;14.28;53.43;100254.03;4996739;27;98571;-59
2021/12/07 10:52:18;;;;;;;;;;;;;;;14.21;53.50;100264.44;4995215;27;97932;-69
2021/12/07 10:54:48;;;;;;;;;;;;;;;14.15;53.86;100255.59;5001695;27;98189;-68
2021/12/07 10:57:17;;;;;;;;;;;;;;;14.10;53.83;100258.38;5002151;27;98478;-69
2021/12/07 11:00:21;;;;;;;;;;;;;;;14.04;53.56;100256.84;4982906;27;98194;-68
2021/12/07 11:02:58;;;;;;;;;;;;;;;13.94;53.71;100251.59;5000598;27;97922;-68
2021/12/07 11:05:45;;;;;;;;;;;;;;;13.83;54.07;100250.91;5001211;27;102818;-68
2021/12/07 11:08:12;;;;;;;;;;;;;;;13.75;53.86;100257.00;5001242;27;98867;-68
2021/12/07 11:10:47;;;;;;;;;;;;;;;13.68;54.20;100256.59;5000461;27;120344;-68
2021/12/07 11:13:17;;;;;;;;;;;;;;;13.62;54.41;100255.03;5001606;27;97817;-69
2021/12/07 11:15:50;;;;;;;;;;;;;;;13.53;54.47;100245.97;5007135;27;98274;-68
2021/12/07 11:18:23;;;;;;;;;;;;;;;13.46;54.80;100251.75;5003587;27;97916;-60
2021/12/07 11:20:50;;;;;;;;;;;;;;;13.43;54.61;100242.28;4999974;27;97964;-68
2021/12/07 11:23:21;;;;;;;;;;;;;;;13.41;54.22;100249.91;4980765;27;99492;-60
2021/12/07 11:31:26;;;;;;;;;;;;;;;13.37;54.29;100242.66;4996109;27;97904;-68
2021/12/07 11:33:53;;;;;;;;;;;;;;;13.34;54.72;100243.25;4999333;27;98110;-59
2021/12/07 11:36:27;;;;;;;;;;;;;;;13.33;54.68;100244.34;4999451;27;111373;-59
2021/12/07 11:38:53;;;;;;;;;;;;;;;13.37;54.57;100239.97;4999765;27;98677;-69
2021/12/07 11:41:24;;;;;;;;;;;;;;;13.47;54.34;100237.09;4999452;27;98346;-59
2021/12/07 11:43:56;;;;;;;;;;;;;;;13.55;54.27;100241.06;4998503;27;98036;-59
2021/12/07 11:46:24;;;;;;;;;;;;;;;13.49;54.42;100232.22;4998665;27;98376;-69
2021/12/07 11:49:02;;;;;;;;;;;;;;;13.42;54.67;100229.06;4998435;27;98774;-68
2021/12/07 11:51:28;;;;;;;;;;;;;;;13.35;54.81;100221.28;4982317;27;103884;-68
2021/12/07 11:53:53;;;;;;;;;;;;;;;13.29;54.68;100227.88;4979886;27;121086;-67
2021/12/07 11:56:19;;;;;;;;;;;;;;;13.25;54.90;100232.25;4997890;27;128745;-59
2021/12/07 11:58:45;;;;;;;;;;;;;;;13.21;54.98;100231.19;4997222;27;127332;-59
2021/12/07 12:01:11;;;;;;;;;;;;;;;13.16;54.84;100223.94;4979449;27;127697;-69
2021/12/07 12:03:37;;;;;;;;;;;;;;;13.11;54.88;100226.72;4998269;27;120364;-59
2021/12/07 12:06:04;;;;;;;;;;;;;;;13.07;55.19;100231.09;4997859;27;98793;-69
2021/12/07 12:08:30;;;;;;;;;;;;;;;13.02;54.95;100225.75;4982057;27;98646;-68
2021/12/07 12:11:08;;;;;;;;;;;;;;;12.95;55.32;100236.91;4979825;27;128022;-69
2021/12/07 12:13:56;;;;;;;;;;;;;;;12.92;55.31;100236.69;4984272;27;98277;-69
2021/12/07 12:16:41;;;;;;;;;;;;;;;12.86;55.07;100237.84;4982586;27;99031;-68
2021/12/07 12:19:28;;;;;;;;;;;;;;;12.81;55.38;100240.59;4992245;27;98599;-59
2021/12/07 12:22:00;;;;;;;;;;;;;;;12.75;55.49;100232.53;4974256;27;98208;-69
2021/12/07 12:24:52;;;;;;;;;;;;;;;12.71;55.52;100226.09;4980384;27;97800;-68
2021/12/07 12:27:25;;;;;;;;;;;;;;;12.67;55.48;100238.56;4965573;27;98600;-68
2021/12/07 12:29:52;;;;;;;;;;;;;;;12.68;55.52;100239.38;4997696;27;98587;-59
2021/12/07 12:32:36;;;;;;;;;;;;;;;12.74;55.51;100240.94;4998239;27;98247;-59
2021/12/07 12:35:02;;;;;;;;;;;;;;;12.89;55.32;100242.66;4997665;27;97724;-67
2021/12/07 12:37:31;;;;;;;;;;;;;;;13.01;55.13;100238.47;4996931;27;118672;-59
2021/12/07 12:39:57;;;;;;;;;;;;;;;13.13;55.17;100238.06;4997305;27;99008;-68
2021/12/07 12:42:43;;;;;;;;;;;;;;;13.20;55.27;100243.94;4996993;27;98339;-59
2021/12/07 12:45:18;;;;;;;;;;;;;;;13.28;55.22;100234.38;4996031;27;97701;-67
2021/12/07 12:47:44;;;;;;;;;;;;;;;13.37;54.90;100235.34;4997855;27;98412;-68
2021/12/07 12:50:12;;;;;;;;;;;;;;;13.40;55.39;100234.78;4996027;27;127638;-59
2021/12/07 12:52:46;;;;;;;;;;;;;;;13.43;55.21;100238.78;4993759;27;126715;-68
2021/12/07 12:55:28;;;;;;;;;;;;;;;13.45;54.96;100231.19;4997639;27;98407;-68
2021/12/07 12:57:54;;;;;;;;;;;;;;;13.53;55.09;100232.44;4996412;27;102058;-59
2021/12/07 13:00:21;;;;;;;;;;;;;;;13.56;55.22;100232.66;4977739;27;128636;-59
2021/12/07 13:02:53;;;;;;;;;;;;;;;13.57;55.27;100238.88;4977052;27;124147;-67
2021/12/07 13:05:33;;;;;;;;;;;;;;;13.50;55.38;100242.72;4978245;27;109284;-59
2021/12/07 13:08:12;;;;;;;;;;;;;;;13.46;55.46;100243.63;4995483;27;100720;-59
2021/12/07 13:10:57;;;;;;;;;;;;;;;13.40;55.43;100236.66;4997198;27;98621;-59
2021/12/07 13:13:31;;;;;;;;;;;;;;;13.33;55.82;100239.72;4992356;27;98860;-59
2021/12/07 13:15:57;;;;;;;;;;;;;;;13.26;55.62;100240.06;4988319;27;98407;-60
2021/12/07 13:18:27;;;;;;;;;;;;;;;13.21;55.63;100244.72;4997873;27;98939;-59
2021/12/07 13:20:53;;;;;;;;;;;;;;;13.14;55.92;100242.38;4978630;27;99020;-59
2021/12/07 13:23:19;;;;;;;;;;;;;;;13.09;55.80;100242.44;4968313;27;128124;-59
2021/12/07 13:25:48;;;;;;;;;;;;;;;13.04;55.99;100242.47;4997360;27;121654;-68
2021/12/07 13:28:29;;;;;;;;;;;;;;;12.98;55.91;100247.16;4997976;27;97889;-60
2021/12/07 13:30:57;;;;;;;;;;;;;;;12.94;56.06;100238.00;4995845;27;98891;-59
2021/12/07 13:33:38;;;;;;;;;;;;;;;12.87;56.10;100240.25;4998397;27;97809;-59
2021/12/07 13:36:30;;;;;;;;;;;;;;;12.83;56.05;100249.22;4998410;27;98063;-68
2021/12/07 13:39:06;;;;;;;;;;;;;;;12.76;56.12;100263.09;4997141;27;98911;-68
2021/12/07 13:41:32;;;;;;;;;;;;;;;12.70;56.07;100256.13;4979097;27;98150;-68
2021/12/07 13:43:58;;;;;;;;;;;;;;;12.63;56.02;100264.56;4996329;27;125582;-59
2021/12/07 13:46:26;;;;;;;;;;;;;;;12.59;56.04;100266.25;4996367;27;123313;-59
2021/12/07 13:49:03;;;;;;;;;;;;;;;12.55;56.13;100265.19;4996163;27;125651;-69
2021/12/07 13:51:29;;;;;;;;;;;;;;;12.52;56.00;100257.66;4998567;27;122478;-60
2021/12/07 13:53:55;;;;;;;;;;;;;;;12.49;55.97;100263.63;5000175;27;120230;-59
2021/12/07 13:56:21;;;;;;;;;;;;;;;12.44;56.05;100267.19;5000529;27;122078;-68
2021/12/07 13:58:53;;;;;;;;;;;;;;;12.41;56.20;100262.34;5001672;27;98858;-69
2021/12/07 14:01:19;;;;;;;;;;;;;;;12.36;56.22;100262.38;5001192;27;98895;-67
2021/12/07 14:03:45;;;;;;;;;;;;;;;12.32;56.15;100264.03;4999960;27;118258;-59
2021/12/07 14:06:12;;;;;;;;;;;;;;;12.27;56.13;100256.78;5001055;27;124372;-69
2021/12/07 14:08:37;;;;;;;;;;;;;;;12.22;56.36;100256.00;4999427;27;116997;-59
2021/12/07 14:11:03;;;;;;;;;;;;;;;12.18;56.30;100265.78;5000229;27;99691;-60
2021/12/07 14:13:29;;;;;;;;;;;;;;;12.15;56.25;100260.97;4998951;27;127463;-68
2021/12/07 14:15:55;;;;;;;;;;;;;;;12.09;56.20;100257.47;4979760;27;119645;-59
2021/12/07 14:18:23;;;;;;;;;;;;;;;12.07;56.08;100264.25;4998759;27;128336;-68
2021/12/07 14:20:55;;;;;;;;;;;;;;;12.02;56.20;100268.63;5001444;27;98558;-69
2021/12/07 14:23:30;;;;;;;;;;;;;;;11.98;56.28;100258.63;4998910;27;97989;-59